createdAt,value
2018-12-07T00:00:38.887Z,7.60
2018-12-07T00:03:08.292Z,11.53
2018-12-07T00:05:37.375Z,9.93
2018-12-07T00:08:06.196Z,8.83
2018-12-07T00:10:34.962Z,9.47
2018-12-07T00:13:03.733Z,9.00
2018-12-07T00:15:32.432Z,7.43
2018-12-07T00:18:01.237Z,7.33
2018-12-07T00:20:29.925Z,10.77
2018-12-07T00:22:58.755Z,7.77
2018-12-07T00:25:27.447Z,8.73
2018-12-07T00:27:56.209Z,8.10
2018-12-07T00:30:24.896Z,9.33
2018-12-07T00:32:53.673Z,9.00
2018-12-07T00:35:22.356Z,8.10
2018-12-07T00:37:51.121Z,8.23
2018-12-07T00:40:20.044Z,8.87
2018-12-07T00:42:48.746Z,10.70
2018-12-07T00:45:17.564Z,8.47
2018-12-07T00:47:46.324Z,12.87
2018-12-07T00:50:14.904Z,10.50
2018-12-07T00:52:43.641Z,9.37
2018-12-07T00:55:23.989Z,7.40
2018-12-07T00:57:52.956Z,10.27
2018-12-07T01:00:21.809Z,6.30
2018-12-07T01:02:50.575Z,7.57
2018-12-07T01:05:19.420Z,11.03
2018-12-07T01:07:48.020Z,8.73
2018-12-07T01:10:16.761Z,7.80
2018-12-07T01:12:45.444Z,7.17
2018-12-07T01:15:14.293Z,9.07
2018-12-07T01:17:42.860Z,7.53
2018-12-07T01:20:11.583Z,6.10
2018-12-07T01:22:40.121Z,6.53
2018-12-07T01:25:08.523Z,7.77
2018-12-07T01:27:37.003Z,6.13
2018-12-07T01:30:05.927Z,8.90
2018-12-07T01:32:34.753Z,9.20
2018-12-07T01:35:03.782Z,7.60
2018-12-07T01:37:32.540Z,7.20
2018-12-07T01:40:01.289Z,6.57
2018-12-07T01:42:30.468Z,8.33
2018-12-07T01:44:59.296Z,7.73
2018-12-07T01:47:28.069Z,8.90
2018-12-07T01:49:56.817Z,8.30
2018-12-07T01:52:25.512Z,7.27
2018-12-07T01:54:54.225Z,8.87
2018-12-07T01:57:22.920Z,9.40
2018-12-07T01:59:51.675Z,9.20
2018-12-07T02:02:20.436Z,6.60
2018-12-07T02:04:49.208Z,6.80
2018-12-07T02:07:28.833Z,6.97
2018-12-07T02:09:58.260Z,8.53
2018-12-07T02:12:27.220Z,7.03
2018-12-07T02:14:56.028Z,6.87
2018-12-07T02:17:24.860Z,7.25
2018-12-07T02:19:53.717Z,7.33
2018-12-07T02:22:22.581Z,8.53
2018-12-07T02:24:51.263Z,7.40
2018-12-07T02:27:20.093Z,7.57
2018-12-07T02:29:48.853Z,4.87
2018-12-07T02:32:17.701Z,7.40
2018-12-07T02:34:46.460Z,7.33
2018-12-07T02:37:15.160Z,6.43
2018-12-07T02:39:43.989Z,7.20
2018-12-07T02:42:12.742Z,7.73
2018-12-07T02:44:41.533Z,5.07
2018-12-07T02:47:10.224Z,6.10
2018-12-07T02:49:38.985Z,6.50
2018-12-07T02:52:07.809Z,5.97
2018-12-07T02:54:36.513Z,5.90
2018-12-07T02:57:05.356Z,5.00
2018-12-07T02:59:34.184Z,4.13
2018-12-07T03:02:03.068Z,4.40
2018-12-07T03:04:33.805Z,4.53
2018-12-07T03:07:03.046Z,5.12
2018-12-07T03:09:31.881Z,4.73
2018-12-07T03:12:00.714Z,4.00
2018-12-07T03:14:29.480Z,5.73
2018-12-07T03:16:58.178Z,3.73
2018-12-07T03:19:26.903Z,3.90
2018-12-07T03:21:56.086Z,4.60
2018-12-07T03:24:24.889Z,3.07
2018-12-07T03:26:53.577Z,4.97
2018-12-07T03:29:22.486Z,2.67
2018-12-07T03:31:51.186Z,3.13
2018-12-07T03:34:20.017Z,3.07
2018-12-07T03:36:48.808Z,2.53
2018-12-07T03:39:17.640Z,3.10
2018-12-07T03:41:46.492Z,3.50
2018-12-07T03:44:15.262Z,3.70
2018-12-07T03:46:44.093Z,2.77
2018-12-07T03:49:12.865Z,3.87
2018-12-07T03:51:41.576Z,2.77
2018-12-07T03:54:10.733Z,3.87
2018-12-07T03:56:39.624Z,3.97
2018-12-07T03:59:08.393Z,3.93
2018-12-07T04:01:37.145Z,3.90
2018-12-07T04:04:05.985Z,5.47
2018-12-07T04:06:36.728Z,4.27
2018-12-07T04:09:07.584Z,2.77
2018-12-07T04:11:36.302Z,2.47
2018-12-07T04:14:05.332Z,3.30
2018-12-07T04:16:34.081Z,2.87
2018-12-07T04:19:02.869Z,3.23
2018-12-07T04:21:31.552Z,3.47
2018-12-07T04:24:00.277Z,2.23
2018-12-07T04:26:29.072Z,2.90
2018-12-07T04:28:58.509Z,4.72
2018-12-07T04:31:28.173Z,2.43
2018-12-07T04:33:57.007Z,3.27
2018-12-07T04:36:25.769Z,2.60
2018-12-07T04:38:54.528Z,3.43
2018-12-07T04:41:23.286Z,3.90
2018-12-07T04:43:51.976Z,3.20
2018-12-07T04:46:22.708Z,2.87
2018-12-07T04:48:52.030Z,2.97
2018-12-07T04:51:21.008Z,4.57
2018-12-07T04:53:49.784Z,2.63
2018-12-07T04:56:18.538Z,2.30
2018-12-07T04:58:47.227Z,2.80
2018-12-07T05:01:16.053Z,2.77
2018-12-07T05:03:44.821Z,2.67
2018-12-07T05:06:13.738Z,2.43
2018-12-07T05:08:42.512Z,2.70
2018-12-07T05:11:11.217Z,1.97
2018-12-07T05:13:39.994Z,3.40
2018-12-07T05:16:08.749Z,5.33
2018-12-07T05:18:37.714Z,3.37
2018-12-07T05:21:06.477Z,2.03
2018-12-07T05:23:35.180Z,2.55
2018-12-07T05:26:04.016Z,2.57
2018-12-07T05:28:32.791Z,2.80
2018-12-07T05:31:01.713Z,2.03
2018-12-07T05:33:30.471Z,2.30
2018-12-07T05:35:59.383Z,2.20
2018-12-07T05:38:28.149Z,1.70
2018-12-07T05:40:56.858Z,2.97
2018-12-07T05:43:25.627Z,2.27
2018-12-07T05:45:54.330Z,11.47
2018-12-07T05:48:23.717Z,5.20
2018-12-07T05:50:53.012Z,3.77
2018-12-07T05:53:21.768Z,4.63
2018-12-07T05:55:50.468Z,5.27
2018-12-07T05:58:19.160Z,3.80
2018-12-07T06:00:47.928Z,3.47
2018-12-07T06:03:16.625Z,2.93
2018-12-07T06:05:45.392Z,2.90
2018-12-07T06:08:14.165Z,2.70
2018-12-07T06:10:42.945Z,3.47
2018-12-07T06:13:11.738Z,3.60
2018-12-07T06:15:40.545Z,2.70
2018-12-07T06:18:09.274Z,4.45
2018-12-07T06:20:37.981Z,3.67
2018-12-07T06:23:06.676Z,3.30
2018-12-07T06:25:35.436Z,3.70
2018-12-07T06:28:04.260Z,3.10
2018-12-07T06:30:32.977Z,6.93
2018-12-07T06:33:01.675Z,2.43
2018-12-07T06:35:30.473Z,2.52
2018-12-07T06:37:59.165Z,4.47
2018-12-07T06:40:28.003Z,2.63
2018-12-07T06:42:56.828Z,2.77
2018-12-07T06:45:25.692Z,2.63
2018-12-07T06:47:54.446Z,3.63
2018-12-07T06:50:23.209Z,6.73
2018-12-07T06:52:51.960Z,3.17
2018-12-07T06:55:20.761Z,1.97
2018-12-07T06:57:49.453Z,2.83
2018-12-07T07:00:18.377Z,3.40
2018-12-07T07:02:47.072Z,2.07
2018-12-07T07:05:15.829Z,2.60
2018-12-07T07:07:44.530Z,1.60
2018-12-07T07:10:13.278Z,1.83
2018-12-07T07:12:42.121Z,2.47
2018-12-07T07:15:10.957Z,2.43
2018-12-07T07:17:39.737Z,3.77
2018-12-07T07:20:08.650Z,2.05
2018-12-07T07:22:37.337Z,1.60
2018-12-07T07:25:06.156Z,3.03
2018-12-07T07:27:34.909Z,2.57
2018-12-07T07:30:04.873Z,1.83
2018-12-07T07:32:33.656Z,2.23
2018-12-07T07:35:02.438Z,4.43
2018-12-07T07:37:31.259Z,1.10
2018-12-07T07:39:59.951Z,1.30
2018-12-07T07:42:28.764Z,5.07
2018-12-07T07:44:57.592Z,1.67
2018-12-07T07:47:26.889Z,0.93
2018-12-07T07:49:55.661Z,0.60
2018-12-07T07:52:24.413Z,1.70
2018-12-07T07:54:54.273Z,1.13
2018-12-07T07:57:22.961Z,1.60
2018-12-07T07:59:51.799Z,1.00
2018-12-07T08:02:20.557Z,0.70
2018-12-07T08:04:49.245Z,1.73
2018-12-07T08:07:17.955Z,1.13
2018-12-07T08:09:46.792Z,2.53
2018-12-07T08:12:15.498Z,8.67
2018-12-07T08:14:44.372Z,4.60
2018-12-07T08:17:13.209Z,2.63
2018-12-07T08:19:41.980Z,1.97
2018-12-07T08:22:10.757Z,2.30
2018-12-07T08:24:39.458Z,1.73
2018-12-07T08:27:08.234Z,1.17
2018-12-07T08:29:36.956Z,1.90
2018-12-07T08:32:05.737Z,2.73
2018-12-07T08:34:34.529Z,1.70
2018-12-07T08:37:03.314Z,1.40
2018-12-07T08:39:32.065Z,1.93
2018-12-07T08:42:06.706Z,4.77
2018-12-07T08:44:31.688Z,3.53
2018-12-07T08:47:00.532Z,2.87
2018-12-07T08:49:34.677Z,3.27
2018-12-07T08:52:03.513Z,1.77
2018-12-07T08:54:32.312Z,3.77
2018-12-07T08:57:01.083Z,2.57
2018-12-07T08:59:29.854Z,1.70
2018-12-07T09:01:58.582Z,2.60
2018-12-07T09:04:27.412Z,1.60
2018-12-07T09:06:56.165Z,2.17
2018-12-07T09:09:25.065Z,1.63
2018-12-07T09:11:56.752Z,1.80
2018-12-07T09:14:25.517Z,1.83
2018-12-07T09:16:54.289Z,1.93
2018-12-07T09:19:22.991Z,2.13
2018-12-07T09:21:51.825Z,1.47
2018-12-07T09:24:20.590Z,2.00
2018-12-07T09:26:49.426Z,1.10
2018-12-07T09:29:18.497Z,1.40
2018-12-07T09:31:47.276Z,1.33
2018-12-07T09:34:16.037Z,1.25
2018-12-07T09:36:44.823Z,1.00
2018-12-07T09:39:13.588Z,2.00
2018-12-07T09:41:42.373Z,1.75
2018-12-07T09:44:11.098Z,1.63
2018-12-07T09:46:39.807Z,1.03
2018-12-07T09:49:08.584Z,1.43
2018-12-07T09:51:37.368Z,0.77
2018-12-07T09:54:06.183Z,0.97
2018-12-07T09:56:34.931Z,1.00
2018-12-07T09:59:03.867Z,1.53
2018-12-07T10:01:32.742Z,0.80
2018-12-07T10:04:01.529Z,1.43
2018-12-07T10:06:30.253Z,0.63
2018-12-07T10:08:59.629Z,1.55
2018-12-07T10:11:28.341Z,2.00
2018-12-07T10:13:57.165Z,1.20
2018-12-07T10:16:25.953Z,1.50
2018-12-07T10:18:55.351Z,1.10
2018-12-07T10:21:24.124Z,0.63
2018-12-07T10:23:52.857Z,1.77
2018-12-07T10:26:23.155Z,2.27
2018-12-07T10:28:51.868Z,3.40
2018-12-07T10:31:20.713Z,1.23
2018-12-07T10:33:49.421Z,1.00
2018-12-07T10:36:18.202Z,1.00
2018-12-07T10:38:46.993Z,2.17
2018-12-07T10:41:15.705Z,0.47
2018-12-07T10:43:44.532Z,0.80
2018-12-07T10:46:13.296Z,0.78
2018-12-07T10:48:42.061Z,1.13
2018-12-07T10:51:10.843Z,0.47
2018-12-07T10:53:39.700Z,0.47
2018-12-07T10:56:09.693Z,0.30
2018-12-07T10:58:38.572Z,2.33
2018-12-07T11:01:12.797Z,0.57
2018-12-07T11:03:47.069Z,0.67
2018-12-07T11:06:21.689Z,0.63
2018-12-07T11:08:56.018Z,0.23
2018-12-07T11:11:30.224Z,0.30
2018-12-07T11:14:04.661Z,0.53
2018-12-07T11:16:38.958Z,1.23
2018-12-07T11:19:13.265Z,2.20
2018-12-07T11:21:47.656Z,6.40
2018-12-07T11:24:21.928Z,3.00
2018-12-07T11:26:55.969Z,10.90
2018-12-07T11:29:30.982Z,1.77
2018-12-07T11:32:05.181Z,1.97
2018-12-07T11:34:38.740Z,1.73
2018-12-07T11:37:07.612Z,0.20
2018-12-07T11:39:36.312Z,2.10
2018-12-07T11:42:07.012Z,0.20
2018-12-07T11:44:37.721Z,0.10
2018-12-07T11:47:06.741Z,1.70
2018-12-07T11:49:35.571Z,0.70
2018-12-07T11:52:04.400Z,0.30
2018-12-07T11:54:33.092Z,0.43
2018-12-07T11:57:01.875Z,0.43
2018-12-07T11:59:30.616Z,1.60
2018-12-07T12:01:59.400Z,0.97
2018-12-07T12:04:28.374Z,2.53
2018-12-07T12:06:58.111Z,0.20
2018-12-07T12:09:26.869Z,0.70
2018-12-07T12:11:58.281Z,0.88
2018-12-07T12:14:26.976Z,1.20
2018-12-07T12:16:55.791Z,1.30
2018-12-07T12:19:24.665Z,0.57
2018-12-07T12:21:53.417Z,1.57
2018-12-07T12:24:22.153Z,1.60
2018-12-07T12:26:51.192Z,1.40
2018-12-07T12:29:20.596Z,1.30
2018-12-07T12:31:49.309Z,0.83
2018-12-07T12:34:18.347Z,1.47
2018-12-07T12:36:48.133Z,0.93
2018-12-07T12:39:16.841Z,3.50
2018-12-07T12:41:46.864Z,1.43
2018-12-07T12:44:15.877Z,0.83
2018-12-07T12:46:44.661Z,0.40
2018-12-07T12:49:13.921Z,0.80
2018-12-07T12:51:42.687Z,1.47
2018-12-07T12:54:11.458Z,1.50
2018-12-07T12:56:40.169Z,0.43
2018-12-07T12:59:08.893Z,0.40
2018-12-07T13:01:38.753Z,0.60
2018-12-07T13:04:08.700Z,0.97
2018-12-07T13:06:37.781Z,0.40
2018-12-07T13:09:07.861Z,0.60
2018-12-07T13:11:38.551Z,0.97
2018-12-07T13:14:07.262Z,1.70
2018-12-07T13:16:35.960Z,0.70
2018-12-07T13:19:04.724Z,0.47
2018-12-07T13:21:33.496Z,0.80
2018-12-07T13:24:02.197Z,0.40
2018-12-07T13:26:31.026Z,0.40
2018-12-07T13:28:59.734Z,0.70
2018-12-07T13:31:28.908Z,0.50
2018-12-07T13:33:57.613Z,0.43
2018-12-07T13:36:26.452Z,1.13
2018-12-07T13:38:55.231Z,2.13
2018-12-07T13:41:24.032Z,1.70
2018-12-07T13:43:52.863Z,0.70
2018-12-07T13:46:23.018Z,3.80
2018-12-07T13:48:51.910Z,0.80
2018-12-07T13:51:21.570Z,3.10
2018-12-07T13:53:50.972Z,0.60
2018-12-07T13:56:20.178Z,0.90
2018-12-07T13:58:49.110Z,1.27
2018-12-07T14:01:18.119Z,1.47
2018-12-07T14:03:47.065Z,1.00
2018-12-07T14:06:15.894Z,1.60
2018-12-07T14:08:44.759Z,1.00
2018-12-07T14:11:13.635Z,0.95
2018-12-07T14:13:42.463Z,2.40
2018-12-07T14:16:11.222Z,0.73
2018-12-07T14:18:40.176Z,2.30
2018-12-07T14:21:09.051Z,1.77
2018-12-07T14:23:38.337Z,2.00
2018-12-07T14:26:08.486Z,2.83
2018-12-07T14:28:37.384Z,0.57
2018-12-07T14:31:06.343Z,3.07
2018-12-07T14:33:35.127Z,0.60
2018-12-07T14:36:04.648Z,0.73
2018-12-07T14:38:33.631Z,0.50
2018-12-07T14:41:02.500Z,0.87
2018-12-07T14:43:31.258Z,0.80
2018-12-07T14:46:00.167Z,0.80
2018-12-07T14:48:29.780Z,1.20
2018-12-07T14:50:59.825Z,0.77
2018-12-07T14:53:28.835Z,0.57
2018-12-07T14:55:57.798Z,1.03
2018-12-07T14:58:26.699Z,1.63
2018-12-07T15:00:55.595Z,4.30
2018-12-07T15:03:24.504Z,0.80
2018-12-07T15:05:53.470Z,0.67
2018-12-07T15:08:22.319Z,1.10
2018-12-07T15:10:51.185Z,1.17
2018-12-07T15:13:20.334Z,6.70
2018-12-07T15:15:49.130Z,0.73
2018-12-07T15:18:18.125Z,2.40
2018-12-07T15:20:46.995Z,0.90
2018-12-07T15:23:15.913Z,1.73
2018-12-07T15:25:45.017Z,1.17
2018-12-07T15:28:13.926Z,2.30
2018-12-07T15:30:42.749Z,1.80
2018-12-07T15:33:11.789Z,1.32
2018-12-07T15:35:40.773Z,1.17
2018-12-07T15:38:09.705Z,1.80
2018-12-07T15:40:38.457Z,1.97
2018-12-07T15:43:07.469Z,1.83
2018-12-07T15:45:36.247Z,2.20
2018-12-07T15:48:05.171Z,4.10
2018-12-07T15:50:34.008Z,2.03
2018-12-07T15:53:02.699Z,1.13
2018-12-07T15:55:31.626Z,1.33
2018-12-07T15:58:00.679Z,0.80
2018-12-07T16:00:29.552Z,1.70
2018-12-07T16:02:58.420Z,0.70
2018-12-07T16:05:27.465Z,1.33
2018-12-07T16:07:56.295Z,0.73
2018-12-07T16:10:25.150Z,0.60
2018-12-07T16:12:54.090Z,1.77
2018-12-07T16:15:23.173Z,0.93
2018-12-07T16:17:52.295Z,1.77
2018-12-07T16:20:21.184Z,2.00
2018-12-07T16:22:50.038Z,2.20
2018-12-07T16:25:19.090Z,1.60
2018-12-07T16:27:47.947Z,2.03
2018-12-07T16:30:16.869Z,4.67
2018-12-07T16:32:45.802Z,4.60
2018-12-07T16:35:14.983Z,7.47
2018-12-07T16:37:43.872Z,5.30
2018-12-07T16:40:12.752Z,19.87
2018-12-07T16:42:41.642Z,26.20
2018-12-07T16:45:10.536Z,13.90
2018-12-07T16:47:39.421Z,3.85
2018-12-07T16:50:08.449Z,2.47
2018-12-07T16:52:37.179Z,2.20
2018-12-07T16:55:06.012Z,1.10
2018-12-07T16:57:34.735Z,2.80
2018-12-07T17:00:03.867Z,3.63
2018-12-07T17:02:33.171Z,3.93
2018-12-07T17:05:02.085Z,2.53
2018-12-07T17:07:30.856Z,2.63
2018-12-07T17:09:59.885Z,2.67
2018-12-07T17:12:28.938Z,0.80
2018-12-07T17:14:57.803Z,1.57
2018-12-07T17:17:26.805Z,2.73
2018-12-07T17:19:56.156Z,1.00
2018-12-07T17:22:25.186Z,1.27
2018-12-07T17:24:54.128Z,0.50
2018-12-07T17:27:23.279Z,1.83
2018-12-07T17:29:52.109Z,0.73
2018-12-07T17:32:20.984Z,0.93
2018-12-07T17:34:49.926Z,1.73
2018-12-07T17:37:18.814Z,1.40
2018-12-07T17:39:47.623Z,3.07
2018-12-07T17:42:16.712Z,1.77
2018-12-07T17:44:45.687Z,1.40
2018-12-07T17:47:14.524Z,1.03
2018-12-07T17:49:43.478Z,1.00
2018-12-07T17:52:12.325Z,0.93
2018-12-07T17:54:41.099Z,1.20
2018-12-07T17:57:10.170Z,1.20
2018-12-07T17:59:39.047Z,1.00
2018-12-07T18:02:07.762Z,2.53
2018-12-07T18:04:36.553Z,1.40
2018-12-07T18:07:05.364Z,2.43
2018-12-07T18:09:34.314Z,4.03
2018-12-07T18:12:03.172Z,1.40
2018-12-07T18:14:32.051Z,2.47
2018-12-07T18:17:01.080Z,1.40
2018-12-07T18:19:29.723Z,2.23
2018-12-07T18:21:58.530Z,2.90
2018-12-07T18:24:28.359Z,3.23
2018-12-07T18:26:57.439Z,2.47
2018-12-07T18:29:26.040Z,2.00
2018-12-07T18:31:54.923Z,1.40
2018-12-07T18:34:24.854Z,0.73
2018-12-07T18:36:54.177Z,2.00
2018-12-07T18:39:23.116Z,1.00
2018-12-07T18:41:51.966Z,2.00
2018-12-07T18:44:20.678Z,3.07
2018-12-07T18:46:49.361Z,1.33
2018-12-07T18:49:18.010Z,0.87
2018-12-07T18:51:46.766Z,1.10
2018-12-07T18:54:15.694Z,0.70
2018-12-07T18:56:44.872Z,1.67
2018-12-07T18:59:13.421Z,2.70
2018-12-07T19:01:42.391Z,1.33
2018-12-07T19:04:11.132Z,0.93
2018-12-07T19:06:39.833Z,1.03
2018-12-07T19:09:09.776Z,0.97
2018-12-07T19:11:39.642Z,1.27
2018-12-07T19:14:08.824Z,0.60
2018-12-07T19:16:37.779Z,1.00
2018-12-07T19:19:06.665Z,0.30
2018-12-07T19:21:35.553Z,1.13
2018-12-07T19:24:04.933Z,0.43
2018-12-07T19:26:33.694Z,1.10
2018-12-07T19:29:02.376Z,0.90
2018-12-07T19:31:32.311Z,1.83
2018-12-07T19:34:01.237Z,0.90
2018-12-07T19:36:30.179Z,0.63
2018-12-07T19:38:59.881Z,0.70
2018-12-07T19:41:28.648Z,0.60
2018-12-07T19:43:57.428Z,0.40
2018-12-07T19:46:26.092Z,3.67
2018-12-07T19:48:54.674Z,1.70
2018-12-07T19:51:23.487Z,2.20
2018-12-07T19:53:52.288Z,1.00
2018-12-07T19:56:20.827Z,0.90
2018-12-07T19:58:49.605Z,0.70
2018-12-07T20:01:18.323Z,2.07
2018-12-07T20:03:47.208Z,0.80
2018-12-07T20:06:16.825Z,0.70
2018-12-07T20:08:45.957Z,1.03
2018-12-07T20:11:14.968Z,2.63
2018-12-07T20:13:43.903Z,0.97
2018-12-07T20:16:12.659Z,0.62
2018-12-07T20:18:41.279Z,2.57
2018-12-07T20:21:10.217Z,0.87
2018-12-07T20:23:38.923Z,1.37
2018-12-07T20:26:07.935Z,0.90
2018-12-07T20:28:36.477Z,1.00
2018-12-07T20:31:05.154Z,0.80
2018-12-07T20:33:33.922Z,1.77
2018-12-07T20:36:02.690Z,4.57
2018-12-07T20:38:31.525Z,0.60
2018-12-07T20:41:00.409Z,0.93
2018-12-07T20:43:29.100Z,2.40
2018-12-07T20:45:57.896Z,2.73
2018-12-07T20:48:26.707Z,0.93
2018-12-07T20:50:55.923Z,0.70
2018-12-07T20:53:24.560Z,1.03
2018-12-07T20:55:53.420Z,1.87
2018-12-07T20:58:22.121Z,1.63
2018-12-07T21:00:59.058Z,1.57
2018-12-07T21:03:35.235Z,0.73
2018-12-07T21:06:54.746Z,1.90
2018-12-07T21:09:29.107Z,0.53
2018-12-07T21:12:06.646Z,0.90
2018-12-07T21:14:43.436Z,0.93
2018-12-07T21:17:33.690Z,0.50
2018-12-07T21:20:10.922Z,0.70
2018-12-07T21:22:39.724Z,0.70
2018-12-07T21:25:08.403Z,0.83
2018-12-07T21:27:37.348Z,0.33
2018-12-07T21:30:52.452Z,1.07
2018-12-07T21:33:28.433Z,0.60
2018-12-07T21:36:22.546Z,4.30
2018-12-07T21:38:51.360Z,0.30
2018-12-07T21:41:20.216Z,0.67
2018-12-07T21:43:49.106Z,0.73
2018-12-07T21:46:17.924Z,0.30
2018-12-07T21:48:46.539Z,1.10
2018-12-07T21:51:20.994Z,0.43
2018-12-07T21:53:49.570Z,0.80
2018-12-07T21:56:18.297Z,0.37
2018-12-07T21:58:47.043Z,0.97
2018-12-07T22:01:16.469Z,0.98
2018-12-07T22:03:45.629Z,1.03
2018-12-07T22:06:14.527Z,0.77
2018-12-07T22:08:43.427Z,0.90
2018-12-07T22:11:12.452Z,1.07
2018-12-07T22:13:41.335Z,1.77
2018-12-07T22:16:10.056Z,0.67
2018-12-07T22:18:38.691Z,0.80
2018-12-07T22:21:07.602Z,0.50
2018-12-07T22:23:37.439Z,0.43
2018-12-07T22:26:06.217Z,0.50
2018-12-07T22:28:34.889Z,1.20
2018-12-07T22:31:03.726Z,0.50
2018-12-07T22:33:32.636Z,1.00
2018-12-07T22:36:01.131Z,1.03
2018-12-07T22:38:29.901Z,0.27
2018-12-07T22:40:58.650Z,0.40
2018-12-07T22:43:27.300Z,1.17
2018-12-07T22:45:55.900Z,0.53
2018-12-07T22:48:24.505Z,0.23
2018-12-07T22:50:53.036Z,0.40
2018-12-07T22:53:21.451Z,0.53
2018-12-07T22:55:49.924Z,0.23
2018-12-07T22:58:18.480Z,0.67
2018-12-07T23:00:48.168Z,0.57
2018-12-07T23:03:19.229Z,0.40
2018-12-07T23:05:47.830Z,1.00
2018-12-07T23:08:16.553Z,1.87
2018-12-07T23:10:45.171Z,0.23
2018-12-07T23:13:13.692Z,0.23
2018-12-07T23:15:42.195Z,2.83
2018-12-07T23:18:10.613Z,1.90
2018-12-07T23:20:39.292Z,1.70
2018-12-07T23:23:08.468Z,0.57
2018-12-07T23:25:37.943Z,0.30
2018-12-07T23:28:07.724Z,0.57
2018-12-07T23:30:37.116Z,0.77
2018-12-07T23:33:05.805Z,0.10
2018-12-07T23:35:34.291Z,0.30
2018-12-07T23:38:02.763Z,0.70
2018-12-07T23:40:31.671Z,0.63
2018-12-07T23:43:02.340Z,0.40
2018-12-07T23:45:31.076Z,0.10
2018-12-07T23:47:59.872Z,0.30
2018-12-07T23:50:28.433Z,1.03
2018-12-07T23:52:56.917Z,0.50
2018-12-07T23:55:25.379Z,0.17
2018-12-07T23:57:53.868Z,0.93
